createdAt,value
2023-04-10T00:02:10.945Z,98736.38
2023-04-10T00:04:41.259Z,98733.63
2023-04-10T00:07:11.669Z,98746.75
2023-04-10T00:09:41.967Z,98742.91
2023-04-10T00:12:12.004Z,98744.03
2023-04-10T00:14:42.361Z,98741.84
2023-04-10T00:17:11.463Z,98739.13
2023-04-10T00:19:40.999Z,98747.56
2023-04-10T00:22:12.346Z,98738.16
2023-04-10T00:24:41.380Z,98743.78
2023-04-10T00:27:11.418Z,98735.16
2023-04-10T00:29:41.585Z,98730.94
2023-04-10T00:32:12.085Z,98725.19
2023-04-10T00:34:41.716Z,98729.72
2023-04-10T00:37:13.026Z,98722.22
2023-04-10T00:39:42.487Z,98707.72
2023-04-10T00:42:11.943Z,98712.66
2023-04-10T00:44:41.892Z,98712.13
2023-04-10T00:47:11.969Z,98710.75
2023-04-10T00:49:42.474Z,98703.38
2023-04-10T00:52:13.853Z,98702.03
2023-04-10T00:54:42.819Z,98699.00
2023-04-10T00:57:14.046Z,98689.47
2023-04-10T00:59:43.703Z,98690.28
2023-04-10T01:02:13.934Z,98696.53
2023-04-10T01:04:44.197Z,98695.47
2023-04-10T01:07:34.712Z,98696.00
2023-04-10T01:10:15.086Z,98702.28
2023-04-10T01:13:01.082Z,98699.25
2023-04-10T01:15:38.763Z,98701.19
2023-04-10T01:18:20.699Z,98703.78
2023-04-10T01:20:50.459Z,98705.16
2023-04-10T01:24:06.312Z,98696.28
2023-04-10T01:26:58.493Z,98696.53
2023-04-10T01:29:34.396Z,98688.34
2023-04-10T01:32:10.230Z,98703.06
2023-04-10T01:34:47.603Z,98695.72
2023-04-10T01:37:22.785Z,98694.91
2023-04-10T01:40:00.477Z,98694.47
2023-04-10T01:42:35.570Z,98695.97
2023-04-10T01:45:10.958Z,98698.56
2023-04-10T01:47:40.183Z,98696.50
2023-04-10T01:50:13.005Z,98694.72
2023-04-10T01:52:44.294Z,98692.41
2023-04-10T01:55:13.840Z,98688.59
2023-04-10T01:57:43.791Z,98691.44
2023-04-10T02:00:17.917Z,98682.72
2023-04-10T02:02:48.099Z,98684.91
2023-04-10T02:05:20.101Z,98676.44
2023-04-10T02:08:03.839Z,98668.66
2023-04-10T02:10:43.730Z,98668.00
2023-04-10T02:13:17.332Z,98665.69
2023-04-10T02:15:52.234Z,98662.44
2023-04-10T02:18:25.333Z,98652.75
2023-04-10T02:20:56.524Z,98658.31
2023-04-10T02:23:25.943Z,98656.25
2023-04-10T02:25:57.082Z,98650.69
2023-04-10T02:28:27.106Z,98654.50
2023-04-10T02:30:58.603Z,98652.56
2023-04-10T02:33:28.592Z,98651.19
2023-04-10T02:35:58.534Z,98642.47
2023-04-10T02:38:27.624Z,98638.25
2023-04-10T02:40:57.197Z,98638.41
2023-04-10T02:43:27.631Z,98629.38
2023-04-10T02:45:57.853Z,98619.56
2023-04-10T02:48:27.399Z,98620.78
2023-04-10T02:50:59.421Z,98614.38
2023-04-10T02:53:29.121Z,98616.25
2023-04-10T02:55:59.433Z,98616.59
2023-04-10T02:58:31.466Z,98623.94
2023-04-10T03:01:03.587Z,98626.38
2023-04-10T03:03:33.099Z,98628.97
2023-04-10T03:06:02.713Z,98625.28
2023-04-10T03:08:32.639Z,98622.56
2023-04-10T03:11:02.153Z,98626.38
2023-04-10T03:13:32.636Z,98636.03
2023-04-10T03:16:03.480Z,98630.72
2023-04-10T03:18:34.324Z,98635.09
2023-04-10T03:21:04.373Z,98625.69
2023-04-10T03:23:34.802Z,98626.63
2023-04-10T03:26:05.571Z,98628.66
2023-04-10T03:28:36.686Z,98624.03
2023-04-10T03:31:11.334Z,98629.47
2023-04-10T03:33:40.390Z,98620.59
2023-04-10T03:36:12.828Z,98615.97
2023-04-10T03:38:42.147Z,98616.91
2023-04-10T03:41:11.642Z,98613.94
2023-04-10T03:43:42.109Z,98614.75
2023-04-10T03:46:13.079Z,98608.91
2023-04-10T03:48:43.141Z,98609.13
2023-04-10T03:51:13.624Z,98609.66
2023-04-10T03:53:43.559Z,98606.41
2023-04-10T03:56:12.573Z,98603.41
2023-04-10T03:58:41.902Z,98609.28
2023-04-10T04:01:13.565Z,98608.28
2023-04-10T04:03:43.810Z,98604.50
2023-04-10T04:06:12.673Z,98608.72
2023-04-10T04:08:42.659Z,98603.94
2023-04-10T04:11:12.948Z,98600.53
2023-04-10T04:13:41.927Z,98603.81
2023-04-10T04:16:15.186Z,98608.03
2023-04-10T04:18:44.547Z,98599.84
2023-04-10T04:21:13.400Z,98600.88
2023-04-10T04:23:43.840Z,98604.28
2023-04-10T04:26:14.820Z,98605.50
2023-04-10T04:28:43.262Z,98609.63
2023-04-10T04:31:13.983Z,98597.88
2023-04-10T04:33:44.065Z,98604.72
2023-04-10T04:36:14.392Z,98620.22
2023-04-10T04:38:43.907Z,98616.41
2023-04-10T04:41:13.366Z,98616.00
2023-04-10T04:43:42.660Z,98614.03
2023-04-10T04:46:13.076Z,98607.66
2023-04-10T04:48:41.998Z,98609.31
2023-04-10T04:51:11.375Z,98604.16
2023-04-10T04:53:41.394Z,98603.59
2023-04-10T04:56:10.989Z,98605.34
2023-04-10T04:58:40.365Z,98611.47
2023-04-10T05:01:11.685Z,98613.94
2023-04-10T05:03:42.764Z,98612.53
2023-04-10T05:06:12.862Z,98607.63
2023-04-10T05:08:42.778Z,98609.41
2023-04-10T05:11:12.344Z,98606.00
2023-04-10T05:13:42.089Z,98612.53
2023-04-10T05:16:13.192Z,98608.75
2023-04-10T05:18:44.064Z,98611.47
2023-04-10T05:21:13.360Z,98616.06
2023-04-10T05:23:42.782Z,98621.88
2023-04-10T05:26:13.475Z,98618.72
2023-04-10T05:28:43.530Z,98621.19
2023-04-10T05:31:14.065Z,98623.78
2023-04-10T05:33:43.881Z,98623.63
2023-04-10T05:36:14.743Z,98622.31
2023-04-10T05:38:43.778Z,98623.44
2023-04-10T05:41:13.666Z,98619.47
2023-04-10T05:43:44.141Z,98628.31
2023-04-10T05:46:13.682Z,98627.88
2023-04-10T05:48:43.914Z,98625.53
2023-04-10T05:51:12.879Z,98626.94
2023-04-10T05:53:41.752Z,98622.31
2023-04-10T05:56:11.854Z,98625.84
2023-04-10T05:58:41.900Z,98624.09
2023-04-10T06:01:11.444Z,98624.75
2023-04-10T06:03:41.606Z,98622.19
2023-04-10T06:06:11.522Z,98629.00
2023-04-10T06:08:40.953Z,98629.66
2023-04-10T06:11:09.852Z,98629.56
2023-04-10T06:13:39.248Z,98622.38
2023-04-10T06:16:11.894Z,98616.66
2023-04-10T06:18:42.425Z,98617.78
2023-04-10T06:21:13.814Z,98626.00
2023-04-10T06:23:44.439Z,98626.41
2023-04-10T06:26:15.002Z,98624.94
2023-04-10T06:28:45.494Z,98621.84
2023-04-10T06:31:15.769Z,98623.19
2023-04-10T06:33:45.198Z,98624.44
2023-04-10T06:36:16.799Z,98625.69
2023-04-10T06:38:45.855Z,98620.38
2023-04-10T06:41:15.327Z,98618.09
2023-04-10T06:43:46.638Z,98607.19
2023-04-10T06:46:16.364Z,98610.22
2023-04-10T06:48:46.865Z,98614.84
2023-04-10T06:51:17.631Z,98614.28
2023-04-10T06:53:47.744Z,98605.31
2023-04-10T06:56:17.478Z,98597.53
2023-04-10T06:58:48.089Z,98591.28
2023-04-10T07:01:18.746Z,98591.81
2023-04-10T07:03:48.726Z,98585.41
2023-04-10T07:06:20.773Z,98579.84
2023-04-10T07:08:51.833Z,98579.94
2023-04-10T07:11:21.578Z,98588.03
2023-04-10T07:13:54.091Z,98589.09
2023-04-10T07:16:22.968Z,98597.16
2023-04-10T07:18:53.248Z,98592.06
2023-04-10T07:21:24.265Z,98592.34
2023-04-10T07:23:53.955Z,98595.06
2023-04-10T07:26:23.407Z,98584.94
2023-04-10T07:28:53.233Z,98571.28
2023-04-10T07:31:22.869Z,98574.00
2023-04-10T07:33:52.140Z,98571.50
2023-04-10T07:36:23.859Z,98569.03
2023-04-10T07:38:54.471Z,98563.13
2023-04-10T07:41:24.780Z,98572.78
2023-04-10T07:43:55.550Z,98574.66
2023-04-10T07:46:24.296Z,98574.75
2023-04-10T07:48:53.470Z,98577.63
2023-04-10T07:51:23.576Z,98575.13
2023-04-10T07:53:53.626Z,98562.25
2023-04-10T07:56:23.569Z,98573.38
2023-04-10T07:58:53.941Z,98559.69
2023-04-10T08:01:24.765Z,98550.19
2023-04-10T08:03:55.003Z,98543.28
2023-04-10T08:06:25.930Z,98546.75
2023-04-10T08:08:56.584Z,98536.44
2023-04-10T08:11:28.622Z,98537.19
2023-04-10T08:14:01.863Z,98530.09
2023-04-10T08:16:34.188Z,98526.28
2023-04-10T08:19:04.812Z,98525.91
2023-04-10T08:21:34.706Z,98527.44
2023-04-10T08:24:05.143Z,98522.13
2023-04-10T08:26:35.255Z,98523.66
2023-04-10T08:29:09.234Z,98514.91
2023-04-10T08:31:39.198Z,98506.19
2023-04-10T08:34:11.690Z,98510.94
2023-04-10T08:36:42.524Z,98500.38
2023-04-10T08:39:13.126Z,98499.28
2023-04-10T08:41:43.959Z,98494.59
2023-04-10T08:44:15.361Z,98489.09
2023-04-10T08:46:46.617Z,98492.38
2023-04-10T08:49:31.197Z,98485.88
2023-04-10T08:52:05.040Z,98486.53
2023-04-10T08:54:40.251Z,98480.53
2023-04-10T08:57:11.622Z,98483.94
2023-04-10T08:59:41.534Z,98481.97
2023-04-10T09:02:11.779Z,98476.41
2023-04-10T09:04:41.199Z,98478.00
2023-04-10T09:07:12.553Z,98472.63
2023-04-10T09:09:41.881Z,98454.44
2023-04-10T09:12:11.191Z,98459.66
2023-04-10T09:14:40.206Z,98447.53
2023-04-10T09:17:16.199Z,98457.94
2023-04-10T09:19:48.089Z,98439.63
2023-04-10T09:22:31.019Z,98444.28
2023-04-10T09:25:01.703Z,98442.91
2023-04-10T09:27:37.882Z,98434.03
2023-04-10T09:30:11.064Z,98439.34
2023-04-10T09:32:42.807Z,98437.59
2023-04-10T09:35:13.218Z,98439.72
2023-04-10T09:37:47.583Z,98423.34
2023-04-10T09:40:25.897Z,98423.84
2023-04-10T09:42:59.251Z,98427.00
2023-04-10T09:45:48.138Z,98417.06
2023-04-10T09:48:17.711Z,98410.03
2023-04-10T09:50:47.510Z,98402.88
2023-04-10T09:53:20.065Z,98401.78
2023-04-10T09:55:50.950Z,98404.66
2023-04-10T09:58:21.085Z,98401.28
2023-04-10T10:00:50.751Z,98389.91
2023-04-10T10:03:22.704Z,98385.03
2023-04-10T10:05:53.047Z,98391.16
2023-04-10T10:08:24.681Z,98387.78
2023-04-10T10:11:00.935Z,98389.47
2023-04-10T10:13:37.633Z,98388.97
2023-04-10T10:16:18.934Z,98388.47
2023-04-10T10:18:56.864Z,98382.47
2023-04-10T10:21:28.048Z,98369.59
2023-04-10T10:24:00.917Z,98352.75
2023-04-10T10:26:34.815Z,98351.16
2023-04-10T10:29:11.348Z,98365.00
2023-04-10T10:31:40.638Z,98368.88
2023-04-10T10:34:09.839Z,98359.78
2023-04-10T10:36:40.870Z,98358.63
2023-04-10T10:39:30.925Z,98356.03
2023-04-10T10:42:10.708Z,98351.22
2023-04-10T10:44:50.673Z,98355.72
2023-04-10T10:47:28.356Z,98345.84
2023-04-10T10:50:00.275Z,98346.50
2023-04-10T10:52:47.774Z,98341.09
2023-04-10T10:55:38.388Z,98350.44
2023-04-10T10:58:09.795Z,98345.34
2023-04-10T11:01:11.320Z,98329.63
2023-04-10T11:03:40.891Z,98323.16
2023-04-10T11:06:13.409Z,98318.13
2023-04-10T11:08:47.311Z,98312.31
2023-04-10T11:11:20.119Z,98315.94
2023-04-10T11:14:21.998Z,98302.81
2023-04-10T11:16:50.459Z,98306.50
2023-04-10T11:19:23.381Z,98297.22
2023-04-10T11:22:08.364Z,98297.63
2023-04-10T11:24:58.984Z,98291.75
2023-04-10T11:28:04.005Z,98281.06
2023-04-10T11:30:36.453Z,98272.97
2023-04-10T11:33:08.248Z,98268.31
2023-04-10T11:35:38.097Z,98269.09
2023-04-10T11:38:19.036Z,98270.53
2023-04-10T11:41:03.180Z,98271.09
2023-04-10T11:43:35.806Z,98265.47
2023-04-10T11:46:09.086Z,98260.81
2023-04-10T11:48:39.361Z,98262.22
2023-04-10T11:51:14.375Z,98239.31
2023-04-10T11:53:43.594Z,98247.59
2023-04-10T11:56:23.079Z,98239.91
2023-04-10T11:58:54.884Z,98228.75
2023-04-10T12:01:24.677Z,98220.38
2023-04-10T12:03:55.026Z,98217.75
2023-04-10T12:06:25.622Z,98208.59
2023-04-10T12:08:55.181Z,98210.38
2023-04-10T12:11:28.777Z,98207.94
2023-04-10T12:14:00.135Z,98211.34
2023-04-10T12:16:29.819Z,98217.81
2023-04-10T12:18:59.571Z,98217.97
2023-04-10T12:21:28.647Z,98215.50
2023-04-10T12:23:58.252Z,98218.91
2023-04-10T12:26:27.222Z,98219.28
2023-04-10T12:29:01.034Z,98205.69
2023-04-10T12:31:31.677Z,98203.88
2023-04-10T12:34:03.009Z,98198.75
2023-04-10T12:36:35.144Z,98211.69
2023-04-10T12:39:07.239Z,98209.66
2023-04-10T12:41:38.487Z,98197.47
2023-04-10T12:44:14.117Z,98194.00
2023-04-10T12:46:45.002Z,98182.59
2023-04-10T12:49:17.000Z,98188.25
2023-04-10T12:51:52.425Z,98195.78
2023-04-10T12:54:33.406Z,98190.81
2023-04-10T12:57:04.540Z,98187.09
2023-04-10T12:59:36.574Z,98190.31
2023-04-10T13:02:06.600Z,98183.84
2023-04-10T13:04:37.393Z,98181.34
2023-04-10T13:07:07.445Z,98189.84
2023-04-10T13:09:37.533Z,98180.91
2023-04-10T13:12:08.788Z,98172.53
2023-04-10T13:14:41.324Z,98172.34
2023-04-10T13:17:10.211Z,98173.16
2023-04-10T13:19:41.113Z,98165.38
2023-04-10T13:22:10.641Z,98161.28
2023-04-10T13:24:40.216Z,98158.50
2023-04-10T13:27:10.265Z,98163.47
2023-04-10T13:29:43.660Z,98157.75
2023-04-10T13:32:13.681Z,98167.72
2023-04-10T13:34:42.641Z,98161.88
2023-04-10T13:37:13.953Z,98162.22
2023-04-10T13:39:44.063Z,98146.78
2023-04-10T13:42:14.914Z,98140.16
2023-04-10T13:44:45.866Z,98138.91
2023-04-10T13:47:15.660Z,98128.31
2023-04-10T13:49:46.321Z,98129.03
2023-04-10T13:52:16.798Z,98123.69
2023-04-10T13:54:46.654Z,98128.81
2023-04-10T13:57:16.052Z,98121.69
2023-04-10T13:59:46.375Z,98113.22
2023-04-10T14:02:15.215Z,98111.16
2023-04-10T14:04:46.800Z,98100.75
2023-04-10T14:07:17.395Z,98093.41
2023-04-10T14:09:47.936Z,98089.31
2023-04-10T14:12:17.472Z,98092.97
2023-04-10T14:14:48.198Z,98088.38
2023-04-10T14:17:18.214Z,98084.09
2023-04-10T14:19:49.679Z,98077.81
2023-04-10T14:22:19.038Z,98063.38
2023-04-10T14:24:51.193Z,98058.91
2023-04-10T14:27:24.449Z,98048.47
2023-04-10T14:29:56.399Z,98045.38
2023-04-10T14:32:25.503Z,98032.53
2023-04-10T14:34:54.544Z,98026.69
2023-04-10T14:37:23.827Z,98031.16
2023-04-10T14:39:53.170Z,98023.91
2023-04-10T14:42:24.177Z,98036.09
2023-04-10T14:44:56.036Z,98029.63
2023-04-10T14:47:25.640Z,98028.41
2023-04-10T14:49:55.145Z,98022.88
2023-04-10T14:52:25.590Z,98023.50
2023-04-10T14:54:55.147Z,98029.34
2023-04-10T14:57:25.851Z,98015.34
2023-04-10T14:59:56.600Z,98018.94
2023-04-10T15:02:26.861Z,98014.88
2023-04-10T15:04:55.427Z,98023.50
2023-04-10T15:07:25.084Z,98028.31
2023-04-10T15:09:58.645Z,98019.88
2023-04-10T15:12:27.692Z,98010.28
2023-04-10T15:14:58.610Z,97998.78
2023-04-10T15:17:28.640Z,97983.75
2023-04-10T15:19:58.172Z,97987.22
2023-04-10T15:22:27.692Z,97985.38
2023-04-10T15:24:57.354Z,97981.03
2023-04-10T15:27:27.087Z,97972.91
2023-04-10T15:29:57.966Z,97973.72
2023-04-10T15:32:28.151Z,97979.66
2023-04-10T15:34:57.980Z,97978.94
2023-04-10T15:37:27.915Z,97979.66
2023-04-10T15:39:57.871Z,97971.47
2023-04-10T15:42:26.850Z,97979.38
2023-04-10T15:44:57.795Z,97980.19
2023-04-10T15:47:26.758Z,97982.69
2023-04-10T15:49:56.281Z,97975.34
2023-04-10T15:52:24.779Z,97978.34
2023-04-10T15:54:54.757Z,97978.22
2023-04-10T15:57:24.165Z,97967.88
2023-04-10T15:59:53.802Z,97958.13
2023-04-10T16:02:24.232Z,97955.72
2023-04-10T16:04:53.050Z,97947.47
2023-04-10T16:07:22.132Z,97948.28
2023-04-10T16:09:52.470Z,97945.63
2023-04-10T16:12:20.911Z,97944.91
2023-04-10T16:14:49.387Z,97956.25
2023-04-10T16:17:17.940Z,97952.31
2023-04-10T16:19:47.814Z,97953.13
2023-04-10T16:22:17.350Z,97951.81
2023-04-10T16:24:47.373Z,97943.69
2023-04-10T16:27:16.960Z,97945.31
2023-04-10T16:29:47.925Z,97938.41
2023-04-10T16:32:20.186Z,97932.78
2023-04-10T16:34:50.570Z,97919.13
2023-04-10T16:37:20.825Z,97924.75
2023-04-10T16:39:51.887Z,97918.66
2023-04-10T16:42:20.861Z,97903.88
2023-04-10T16:44:49.725Z,97886.88
2023-04-10T16:47:18.869Z,97882.56
2023-04-10T16:49:47.313Z,97874.88
2023-04-10T16:52:18.222Z,97878.53
2023-04-10T16:54:48.157Z,97884.03
2023-04-10T16:57:17.775Z,97896.50
2023-04-10T16:59:47.568Z,97898.91
2023-04-10T17:02:16.565Z,97896.72
2023-04-10T17:04:46.413Z,97892.81
2023-04-10T17:07:17.568Z,97877.81
2023-04-10T17:09:48.626Z,97870.94
2023-04-10T17:12:17.324Z,97859.81
2023-04-10T17:14:47.969Z,97849.50
2023-04-10T17:17:17.924Z,97846.50
2023-04-10T17:19:47.927Z,97841.00
2023-04-10T17:22:21.257Z,97850.16
2023-04-10T17:24:51.147Z,97845.91
2023-04-10T17:27:21.330Z,97846.41
2023-04-10T17:29:50.811Z,97849.25
2023-04-10T17:32:20.130Z,97835.06
2023-04-10T17:34:51.279Z,97828.97
2023-04-10T17:37:22.834Z,97827.97
2023-04-10T17:39:54.502Z,97826.34
2023-04-10T17:42:25.394Z,97844.22
2023-04-10T17:44:54.960Z,97841.00
2023-04-10T17:47:24.996Z,97848.13
2023-04-10T17:49:56.929Z,97846.50
2023-04-10T17:52:28.374Z,97842.50
2023-04-10T17:54:58.167Z,97842.50
2023-04-10T17:57:28.647Z,97840.50
2023-04-10T17:59:57.603Z,97837.50
2023-04-10T18:02:27.818Z,97835.53
2023-04-10T18:04:57.362Z,97836.59
2023-04-10T18:07:28.678Z,97844.69
2023-04-10T18:09:58.007Z,97834.38
2023-04-10T18:12:27.337Z,97835.03
2023-04-10T18:14:56.839Z,97831.00
2023-04-10T18:17:25.943Z,97825.59
2023-04-10T18:19:57.043Z,97830.72
2023-04-10T18:22:27.265Z,97843.75
2023-04-10T18:24:57.525Z,97851.28
2023-04-10T18:27:30.492Z,97856.38
2023-04-10T18:30:00.758Z,97865.97
2023-04-10T18:32:30.204Z,97867.88
2023-04-10T18:35:00.134Z,97848.84
2023-04-10T18:37:31.416Z,97844.44
2023-04-10T18:40:15.480Z,97840.06
2023-04-10T18:42:46.200Z,97844.59
2023-04-10T18:45:14.926Z,97842.84
2023-04-10T18:47:43.929Z,97844.53
2023-04-10T18:50:13.352Z,97830.59
2023-04-10T18:52:44.786Z,97824.59
2023-04-10T18:55:16.763Z,97812.56
2023-04-10T18:57:45.220Z,97810.56
2023-04-10T19:00:15.089Z,97806.75
2023-04-10T19:02:45.145Z,97798.28
2023-04-10T19:05:17.138Z,97816.06
2023-04-10T19:08:00.683Z,97818.31
2023-04-10T19:10:32.875Z,97806.19
2023-04-10T19:13:02.704Z,97797.72
2023-04-10T19:15:32.132Z,97797.34
2023-04-10T19:18:02.150Z,97796.97
2023-04-10T19:20:50.840Z,97778.81
2023-04-10T19:23:21.840Z,97776.38
2023-04-10T19:25:55.001Z,97793.75
2023-04-10T19:28:26.217Z,97787.31
2023-04-10T19:30:56.150Z,97773.56
2023-04-10T19:33:26.121Z,97775.81
2023-04-10T19:35:55.590Z,97783.13
2023-04-10T19:38:26.311Z,97769.97
2023-04-10T19:40:56.834Z,97762.72
2023-04-10T19:43:26.257Z,97754.63
2023-04-10T19:45:56.814Z,97760.75
2023-04-10T19:48:25.674Z,97744.19
2023-04-10T19:50:55.028Z,97728.84
2023-04-10T19:53:26.590Z,97716.09
2023-04-10T19:55:55.640Z,97710.84
2023-04-10T20:01:05.063Z,97729.22
2023-04-10T20:03:36.375Z,97730.06
2023-04-10T20:06:07.885Z,97732.09
2023-04-10T20:08:39.494Z,97725.47
2023-04-10T20:11:09.660Z,97730.91
2023-04-10T20:13:41.462Z,97737.03
2023-04-10T20:16:10.713Z,97726.53
2023-04-10T20:18:41.768Z,97724.09
2023-04-10T20:21:11.648Z,97715.41
2023-04-10T20:23:42.977Z,97713.22
2023-04-10T20:26:14.121Z,97712.41
2023-04-10T20:28:44.089Z,97722.13
2023-04-10T20:31:14.673Z,97725.78
2023-04-10T20:33:43.585Z,97715.69
2023-04-10T20:36:13.622Z,97724.56
2023-04-10T20:38:45.590Z,97717.50
2023-04-10T20:41:14.494Z,97728.22
2023-04-10T20:43:43.969Z,97736.09
2023-04-10T20:46:12.945Z,97722.97
2023-04-10T20:48:42.661Z,97711.50
2023-04-10T20:51:12.685Z,97719.00
2023-04-10T20:53:44.062Z,97709.69
2023-04-10T20:56:13.157Z,97676.16
2023-04-10T20:58:43.578Z,97682.59
2023-04-10T21:01:12.417Z,97670.47
2023-04-10T21:03:42.677Z,97670.47
2023-04-10T21:06:15.655Z,97690.69
2023-04-10T21:08:46.580Z,97705.44
2023-04-10T21:11:17.015Z,97717.38
2023-04-10T21:13:46.507Z,97705.06
2023-04-10T21:16:24.590Z,97698.41
2023-04-10T21:18:54.003Z,97691.97
2023-04-10T21:21:23.525Z,97692.59
2023-04-10T21:23:56.453Z,97716.22
2023-04-10T21:26:30.678Z,97706.97
2023-04-10T21:29:05.359Z,97690.78
2023-04-10T21:31:34.377Z,97691.59
2023-04-10T21:34:04.284Z,97675.84
2023-04-10T21:36:34.383Z,97681.28
2023-04-10T21:39:09.575Z,97690.41
2023-04-10T21:41:38.718Z,97699.09
2023-04-10T21:44:08.181Z,97709.59
2023-04-10T21:46:37.640Z,97717.06
2023-04-10T21:49:06.679Z,97710.22
2023-04-10T21:51:36.206Z,97711.84
2023-04-10T21:54:08.226Z,97713.88
2023-04-10T21:56:39.382Z,97705.38
2023-04-10T21:59:09.203Z,97705.00
2023-04-10T22:01:37.763Z,97704.81
2023-04-10T22:04:08.455Z,97709.00
2023-04-10T22:06:38.592Z,97701.56
2023-04-10T22:09:10.055Z,97707.66
2023-04-10T22:11:39.551Z,97709.50
2023-04-10T22:14:17.149Z,97715.56
2023-04-10T22:16:46.675Z,97713.94
2023-04-10T22:19:16.748Z,97736.16
2023-04-10T22:21:46.790Z,97738.78
2023-04-10T22:24:17.992Z,97733.34
2023-04-10T22:26:47.469Z,97747.53
2023-04-10T22:29:16.399Z,97757.03
2023-04-10T22:31:45.700Z,97762.09
2023-04-10T22:34:15.549Z,97752.22
2023-04-10T22:36:45.043Z,97756.88
2023-04-10T22:39:15.628Z,97755.69
2023-04-10T22:41:46.922Z,97754.91
2023-04-10T22:44:16.656Z,97758.13
2023-04-10T22:46:48.939Z,97757.72
2023-04-10T22:49:18.775Z,97753.50
2023-04-10T22:51:48.719Z,97776.69
2023-04-10T22:54:18.190Z,97762.97
2023-04-10T22:56:50.805Z,97763.97
2023-04-10T22:59:21.173Z,97754.72
2023-04-10T23:01:51.516Z,97760.56
2023-04-10T23:04:20.508Z,97754.72
2023-04-10T23:06:50.475Z,97749.69
2023-04-10T23:09:20.425Z,97771.44
2023-04-10T23:11:51.769Z,97764.59
2023-04-10T23:14:21.143Z,97756.72
2023-04-10T23:16:50.121Z,97756.34
2023-04-10T23:19:21.926Z,97761.72
2023-04-10T23:21:53.547Z,97753.47
2023-04-10T23:24:23.434Z,97742.59
2023-04-10T23:26:54.365Z,97741.19
2023-04-10T23:29:23.829Z,97738.38
2023-04-10T23:31:53.802Z,97749.22
2023-04-10T23:34:23.150Z,97743.97
2023-04-10T23:36:53.186Z,97739.16
2023-04-10T23:39:23.102Z,97720.41
2023-04-10T23:41:54.129Z,97701.09
2023-04-10T23:44:23.690Z,97707.31
2023-04-10T23:46:53.308Z,97691.25
2023-04-10T23:49:22.861Z,97686.38
2023-04-10T23:51:52.840Z,97705.94
2023-04-10T23:54:22.759Z,97693.81
2023-04-10T23:56:53.478Z,97685.97
2023-04-10T23:59:23.074Z,97687.59
